Time;durP1;ratioP1;P1;durP2;ratioP2;P2;SDS_P1;SDS_P2;PMS_P1;PMS_P2;Temp;Humidity;BMP_temperature;BMP_pressure;BME280_temperature;BME280_humidity;BME280_pressure;Samples;Min_cycle;Max_cycle;Signal;HPM_P1;HPM_P2
2023/03/18 00:00:39;;;;;;;17.92;10.45;;;11.80;99.90;;;;;;5099104;28;20273;-68
2023/03/18 00:03:05;;;;;;;19.35;10.77;;;11.80;99.90;;;;;;5102006;28;20116;-68
2023/03/18 00:05:31;;;;;;;17.35;10.30;;;11.70;99.90;;;;;;5103551;28;20130;-68
2023/03/18 00:07:58;;;;;;;18.65;11.20;;;11.70;99.90;;;;;;5102701;28;20312;-68
2023/03/18 00:10:23;;;;;;;18.50;11.32;;;11.70;99.90;;;;;;5104577;28;20071;-68
2023/03/18 00:12:49;;;;;;;18.38;11.00;;;11.60;99.90;;;;;;5110099;27;20088;-68
2023/03/18 00:15:17;;;;;;;20.58;11.82;;;11.70;99.90;;;;;;5105081;28;20039;-69
2023/03/18 00:17:43;;;;;;;18.73;11.50;;;11.60;99.90;;;;;;5114889;28;20035;-69
2023/03/18 00:20:11;;;;;;;17.75;11.43;;;11.60;99.90;;;;;;5108705;27;20443;-68
2023/03/18 00:22:38;;;;;;;24.17;13.10;;;11.50;99.90;;;;;;5112011;28;20348;-68
2023/03/18 00:25:07;;;;;;;21.83;13.40;;;11.50;99.90;;;;;;5106865;28;20082;-69
2023/03/18 00:27:33;;;;;;;22.67;13.48;;;11.50;99.90;;;;;;5103231;28;20470;-69
2023/03/18 00:29:59;;;;;;;24.90;14.00;;;11.40;99.90;;;;;;5103404;27;20031;-69
2023/03/18 00:32:26;;;;;;;22.48;14.32;;;11.40;99.90;;;;;;5102313;28;20035;-68
2023/03/18 00:34:55;;;;;;;23.50;14.43;;;11.30;99.90;;;;;;5112792;28;20042;-68
2023/03/18 00:37:32;;;;;;;21.50;14.23;;;11.30;99.90;;;;;;5105490;28;20039;-69
2023/03/18 00:40:09;;;;;;;24.52;14.73;;;11.20;99.90;;;;;;5109702;28;20035;-68
2023/03/18 00:42:38;;;;;;;24.58;15.80;;;11.20;99.90;;;;;;5116128;27;20747;-68
2023/03/18 00:45:06;;;;;;;28.83;16.45;;;11.20;99.90;;;;;;5111438;27;20047;-68
2023/03/18 00:47:33;;;;;;;26.20;15.93;;;11.20;99.90;;;;;;5112114;27;20047;-68
2023/03/18 00:49:58;;;;;;;29.33;18.55;;;11.20;99.90;;;;;;5110917;27;20035;-68
2023/03/18 00:52:24;;;;;;;27.02;17.15;;;11.10;99.90;;;;;;5113501;27;20039;-68
2023/03/18 00:54:50;;;;;;;24.83;16.92;;;11.00;99.90;;;;;;5134021;27;20058;-68
2023/03/18 00:57:16;;;;;;;26.15;17.08;;;11.00;99.90;;;;;;5115070;27;20051;-68
2023/03/18 00:59:42;;;;;;;27.73;17.05;;;11.00;99.90;;;;;;5102720;28;20036;-68
2023/03/18 01:02:07;;;;;;;27.95;17.58;;;10.90;99.90;;;;;;5108730;27;20043;-68
2023/03/18 01:04:33;;;;;;;32.83;17.88;;;10.90;99.90;;;;;;5114557;27;20117;-68
2023/03/18 01:06:58;;;;;;;23.05;16.23;;;10.90;99.90;;;;;;5119946;27;20446;-68
2023/03/18 01:09:24;;;;;;;26.20;16.90;;;10.80;99.90;;;;;;5115614;27;20035;-68
2023/03/18 01:11:50;;;;;;;29.63;16.95;;;10.70;99.90;;;;;;5113665;27;20047;-68
2023/03/18 01:14:15;;;;;;;32.80;18.52;;;10.70;99.90;;;;;;5100140;27;20046;-68
2023/03/18 01:16:41;;;;;;;28.35;17.42;;;10.60;99.90;;;;;;5108983;27;20047;-68
2023/03/18 01:19:06;;;;;;;31.73;18.98;;;10.40;99.90;;;;;;5113428;27;20049;-68
2023/03/18 01:21:32;;;;;;;30.63;19.05;;;10.40;99.90;;;;;;5104678;27;20064;-68
2023/03/18 01:23:59;;;;;;;27.98;18.80;;;10.30;99.90;;;;;;5116032;27;20070;-68
2023/03/18 01:26:26;;;;;;;31.27;19.45;;;10.30;99.90;;;;;;5107678;27;20047;-68
2023/03/18 01:28:52;;;;;;;31.20;19.90;;;10.20;99.90;;;;;;5100897;28;20039;-68
2023/03/18 01:31:18;;;;;;;30.83;20.05;;;10.20;99.90;;;;;;5102452;27;20091;-68
2023/03/18 01:33:46;;;;;;;32.92;21.30;;;10.30;99.90;;;;;;5104838;27;20146;-68
2023/03/18 01:36:12;;;;;;;31.83;21.70;;;10.20;99.90;;;;;;5108178;27;20039;-68
2023/03/18 01:38:39;;;;;;;36.25;22.35;;;10.20;99.90;;;;;;5094008;28;20500;-68
2023/03/18 01:41:05;;;;;;;38.72;22.27;;;10.10;99.90;;;;;;5100048;27;20043;-68
2023/03/18 01:43:33;;;;;;;35.15;20.98;;;10.20;99.90;;;;;;5117405;27;20731;-68
2023/03/18 01:46:01;;;;;;;36.30;22.35;;;10.20;99.90;;;;;;5111404;27;20047;-68
2023/03/18 01:48:30;;;;;;;36.88;21.70;;;10.20;99.90;;;;;;5116226;27;20046;-68
2023/03/18 01:51:00;;;;;;;36.50;22.52;;;10.10;99.90;;;;;;5102690;27;20043;-68
2023/03/18 01:53:34;;;;;;;36.03;21.98;;;10.00;99.90;;;;;;5112976;27;20374;-68
2023/03/18 01:56:01;;;;;;;34.30;20.15;;;10.00;99.90;;;;;;5093864;27;20446;-68
2023/03/18 01:58:33;;;;;;;31.35;19.50;;;9.90;99.90;;;;;;5112187;27;20118;-68
2023/03/18 02:01:05;;;;;;;29.03;18.80;;;9.90;99.90;;;;;;5107957;27;20071;-68
2023/03/18 02:03:33;;;;;;;29.08;17.77;;;9.80;99.90;;;;;;5114889;27;20367;-68
2023/03/18 02:06:00;;;;;;;28.75;18.95;;;9.80;99.90;;;;;;5106296;27;20394;-68
2023/03/18 02:08:25;;;;;;;32.35;19.13;;;9.80;99.90;;;;;;5112212;27;20114;-68
2023/03/18 02:10:52;;;;;;;33.58;20.17;;;9.70;99.90;;;;;;5110802;27;20133;-68
2023/03/18 02:13:19;;;;;;;36.60;20.65;;;9.60;99.90;;;;;;5117303;27;20054;-68
2023/03/18 02:15:54;;;;;;;36.60;21.58;;;9.60;99.90;;;;;;5121165;27;20043;-68
2023/03/18 02:18:35;;;;;;;34.85;21.73;;;9.60;99.90;;;;;;5114550;27;20091;-68
2023/03/18 02:21:22;;;;;;;35.10;22.48;;;9.60;99.90;;;;;;5109922;27;20043;-68
2023/03/18 02:24:25;;;;;;;38.28;22.80;;;9.60;99.90;;;;;;5114399;27;20050;-68
2023/03/18 02:27:12;;;;;;;39.00;22.40;;;9.60;99.90;;;;;;5110684;27;20066;-68
2023/03/18 02:29:41;;;;;;;36.20;23.02;;;9.60;99.90;;;;;;5113592;27;20088;-68
2023/03/18 02:32:07;;;;;;;40.28;23.38;;;9.60;99.90;;;;;;5101225;27;20043;-68
2023/03/18 02:34:34;;;;;;;38.13;24.27;;;9.70;99.90;;;;;;5113666;27;20122;-68
2023/03/18 02:37:00;;;;;;;38.78;23.95;;;9.70;99.90;;;;;;5101986;27;20039;-68
2023/03/18 02:39:28;;;;;;;39.60;24.30;;;9.70;99.90;;;;;;5122097;27;20096;-68
2023/03/18 02:41:54;;;;;;;39.67;24.92;;;9.70;99.90;;;;;;5108721;27;20035;-68
2023/03/18 02:44:20;;;;;;;45.30;26.05;;;9.70;99.90;;;;;;5114023;27;20371;-68
2023/03/18 02:46:54;;;;;;;38.45;24.05;;;9.60;99.90;;;;;;5102713;28;20446;-68
2023/03/18 02:49:21;;;;;;;40.28;24.42;;;9.70;99.90;;;;;;5110984;27;20520;-68
2023/03/18 02:51:48;;;;;;;40.33;24.77;;;9.60;99.90;;;;;;5101564;27;20450;-68
2023/03/18 02:54:17;;;;;;;36.60;24.58;;;9.60;99.90;;;;;;5101166;28;20043;-68
2023/03/18 02:56:43;;;;;;;41.40;24.45;;;9.60;99.90;;;;;;5108101;27;20035;-68
2023/03/18 02:59:10;;;;;;;40.65;24.85;;;9.60;99.90;;;;;;5108700;27;20050;-68
2023/03/18 03:01:37;;;;;;;39.33;24.48;;;9.60;99.90;;;;;;5109308;27;20038;-68
2023/03/18 03:04:04;;;;;;;39.97;24.25;;;9.60;99.90;;;;;;5094250;27;20079;-68
2023/03/18 03:06:30;;;;;;;38.42;24.88;;;9.50;99.90;;;;;;5099736;27;20081;-68
2023/03/18 03:08:56;;;;;;;42.08;24.17;;;9.60;99.90;;;;;;5110052;27;20086;-68
2023/03/18 03:11:22;;;;;;;37.15;24.20;;;9.50;99.90;;;;;;5108829;27;20054;-68
2023/03/18 03:13:48;;;;;;;36.70;23.92;;;9.50;99.90;;;;;;5112839;27;20050;-68
2023/03/18 03:16:15;;;;;;;40.35;24.63;;;9.50;99.90;;;;;;5091412;28;20035;-68
2023/03/18 03:18:42;;;;;;;40.38;24.38;;;9.50;99.90;;;;;;5111139;27;20054;-68
2023/03/18 03:21:08;;;;;;;34.03;23.48;;;9.50;99.90;;;;;;5109810;27;20043;-68
2023/03/18 03:23:35;;;;;;;43.47;24.35;;;9.50;99.90;;;;;;5113686;27;20035;-68
2023/03/18 03:26:03;;;;;;;36.70;24.58;;;9.50;99.90;;;;;;5111439;27;20043;-68
2023/03/18 03:28:29;;;;;;;39.47;24.40;;;9.50;99.90;;;;;;5114647;27;20499;-68
2023/03/18 03:30:55;;;;;;;37.28;24.83;;;9.50;99.90;;;;;;5112010;27;20122;-68
2023/03/18 03:33:21;;;;;;;37.08;24.10;;;9.40;99.90;;;;;;5093437;28;20051;-68
2023/03/18 03:35:47;;;;;;;40.72;25.00;;;9.40;99.90;;;;;;5095000;27;20043;-68
2023/03/18 03:38:13;;;;;;;43.70;24.77;;;9.40;99.90;;;;;;5111152;27;20077;-68
2023/03/18 03:40:39;;;;;;;39.88;25.80;;;9.50;99.90;;;;;;5092632;28;20052;-68
2023/03/18 03:43:05;;;;;;;41.58;27.15;;;9.50;99.90;;;;;;5093783;27;20273;-68
2023/03/18 03:45:32;;;;;;;40.78;27.48;;;9.40;99.90;;;;;;5107897;27;20074;-68
2023/03/18 03:47:58;;;;;;;44.67;27.17;;;9.40;99.90;;;;;;5109302;27;20039;-68
2023/03/18 03:50:24;;;;;;;47.20;27.40;;;9.30;99.90;;;;;;5112544;27;20081;-68
2023/03/18 03:52:50;;;;;;;42.35;27.55;;;9.40;99.90;;;;;;5112109;28;20066;-68
2023/03/18 03:55:18;;;;;;;43.97;26.90;;;9.30;99.90;;;;;;5113822;27;20051;-68
2023/03/18 03:57:45;;;;;;;44.40;27.42;;;9.30;99.90;;;;;;5117224;28;20393;-68
2023/03/18 04:00:14;;;;;;;45.20;27.52;;;9.30;99.90;;;;;;5108123;28;20046;-68
2023/03/18 04:02:42;;;;;;;41.78;27.23;;;9.20;99.90;;;;;;5105297;28;20027;-68
2023/03/18 04:05:09;;;;;;;42.47;27.33;;;9.30;99.90;;;;;;5113388;28;20138;-68
2023/03/18 04:07:35;;;;;;;41.85;26.80;;;9.30;99.90;;;;;;5104148;28;21031;-68
2023/03/18 04:10:01;;;;;;;41.15;27.02;;;9.20;99.90;;;;;;5106511;27;20057;-68
2023/03/18 04:12:28;;;;;;;39.05;25.92;;;9.30;99.90;;;;;;5102982;28;20088;-68
2023/03/18 04:14:54;;;;;;;39.78;26.90;;;9.30;99.90;;;;;;5107060;27;20078;-68
2023/03/18 04:17:19;;;;;;;41.00;25.48;;;9.30;99.90;;;;;;5112456;27;20062;-68
2023/03/18 04:19:45;;;;;;;41.22;25.35;;;9.30;99.90;;;;;;5119617;27;20097;-68
2023/03/18 04:22:10;;;;;;;36.58;25.08;;;9.30;99.90;;;;;;5113288;27;20074;-68
2023/03/18 04:24:36;;;;;;;42.25;26.00;;;9.30;99.90;;;;;;5103194;28;20545;-68
2023/03/18 04:27:02;;;;;;;38.03;24.85;;;9.30;99.90;;;;;;5104644;27;20096;-69
2023/03/18 04:29:28;;;;;;;39.72;24.75;;;9.30;99.90;;;;;;5133623;27;20031;-68
2023/03/18 04:31:55;;;;;;;35.95;24.20;;;9.30;99.90;;;;;;5111644;27;20078;-68
2023/03/18 04:34:21;;;;;;;38.42;24.90;;;9.30;99.90;;;;;;5097409;27;20040;-68
2023/03/18 04:36:46;;;;;;;36.10;25.25;;;9.20;99.90;;;;;;5106958;28;20042;-68
2023/03/18 04:39:12;;;;;;;39.65;24.80;;;9.30;99.90;;;;;;5106842;27;20056;-68
2023/03/18 04:41:38;;;;;;;34.92;23.88;;;9.20;99.90;;;;;;5112681;27;20038;-68
2023/03/18 04:44:04;;;;;;;36.35;24.52;;;9.20;99.90;;;;;;5114237;27;20558;-68
2023/03/18 04:46:31;;;;;;;39.30;24.08;;;9.20;99.90;;;;;;5111433;27;20120;-68
2023/03/18 04:48:57;;;;;;;37.15;24.98;;;9.20;99.90;;;;;;5096669;27;20040;-68
2023/03/18 04:51:24;;;;;;;40.90;24.55;;;9.20;99.90;;;;;;5116745;27;20039;-68
2023/03/18 04:53:50;;;;;;;40.65;24.90;;;9.30;99.90;;;;;;5116271;27;20087;-68
2023/03/18 04:56:16;;;;;;;37.60;24.58;;;9.20;99.90;;;;;;5112492;27;20539;-68
2023/03/18 04:58:42;;;;;;;37.80;23.42;;;9.30;99.90;;;;;;5115922;27;20051;-68
2023/03/18 05:01:08;;;;;;;33.53;22.33;;;9.20;99.90;;;;;;5106424;27;20485;-68
2023/03/18 05:03:34;;;;;;;35.95;24.17;;;9.20;99.90;;;;;;5109832;28;20039;-68
2023/03/18 05:06:00;;;;;;;39.40;24.50;;;9.20;99.90;;;;;;5102810;27;20051;-68
2023/03/18 05:08:26;;;;;;;31.95;23.30;;;9.20;99.90;;;;;;5096344;27;20031;-68
2023/03/18 05:10:52;;;;;;;36.83;23.17;;;9.20;99.90;;;;;;5105192;27;20122;-69
2023/03/18 05:13:17;;;;;;;35.10;23.92;;;9.10;99.90;;;;;;5101938;27;20035;-69
2023/03/18 05:15:43;;;;;;;37.17;23.60;;;9.10;99.90;;;;;;5111416;27;20428;-69
2023/03/18 05:18:09;;;;;;;35.05;22.75;;;9.20;99.90;;;;;;5111696;27;20043;-68
2023/03/18 05:20:35;;;;;;;33.70;22.38;;;9.20;99.90;;;;;;5106424;27;20492;-68
2023/03/18 05:23:00;;;;;;;31.95;22.65;;;9.20;99.90;;;;;;5113491;27;20049;-68
2023/03/18 05:25:26;;;;;;;35.55;22.30;;;9.20;99.90;;;;;;5111252;27;20034;-68
2023/03/18 05:27:53;;;;;;;35.75;23.05;;;9.20;99.90;;;;;;5117854;27;20040;-68
2023/03/18 05:30:19;;;;;;;35.90;23.15;;;9.20;99.90;;;;;;5114696;27;20053;-68
2023/03/18 05:32:45;;;;;;;35.10;23.08;;;9.30;99.90;;;;;;5102514;27;20054;-68
2023/03/18 05:35:11;;;;;;;33.97;22.45;;;9.30;99.90;;;;;;5100933;27;20040;-69
2023/03/18 05:37:37;;;;;;;35.20;22.75;;;9.30;99.90;;;;;;5111278;27;20043;-68
2023/03/18 05:40:08;;;;;;;36.42;23.27;;;9.30;99.90;;;;;;5105052;28;20036;-68
2023/03/18 05:42:35;;;;;;;36.42;23.85;;;9.30;99.90;;;;;;5104640;27;20061;-68
2023/03/18 05:45:01;;;;;;;37.55;23.83;;;9.30;99.90;;;;;;5122899;27;20050;-68
2023/03/18 05:47:27;;;;;;;34.90;22.77;;;9.30;99.90;;;;;;5104838;28;20371;-68
2023/03/18 05:49:53;;;;;;;37.17;23.80;;;9.40;99.90;;;;;;5101106;27;20041;-69
2023/03/18 05:52:19;;;;;;;32.15;21.80;;;9.40;99.90;;;;;;5109689;27;20123;-68
2023/03/18 05:54:44;;;;;;;35.45;22.00;;;9.40;99.90;;;;;;5112976;27;20082;-68
2023/03/18 05:57:10;;;;;;;31.52;21.63;;;9.40;99.90;;;;;;5110555;27;20359;-68
2023/03/18 05:59:35;;;;;;;30.23;20.42;;;9.40;99.90;;;;;;5111545;27;20046;-68
2023/03/18 06:02:02;;;;;;;27.65;19.88;;;9.30;99.90;;;;;;5107054;27;20047;-68
2023/03/18 06:04:28;;;;;;;29.23;20.13;;;9.30;99.90;;;;;;5111129;27;20497;-68
2023/03/18 06:06:54;;;;;;;33.50;22.10;;;9.20;99.90;;;;;;5115141;27;20083;-69
2023/03/18 06:09:21;;;;;;;36.42;22.10;;;9.20;99.90;;;;;;5113644;27;20058;-69
2023/03/18 06:11:49;;;;;;;30.67;21.38;;;9.20;99.90;;;;;;5110666;27;20493;-68
2023/03/18 06:14:15;;;;;;;32.95;21.35;;;9.20;99.90;;;;;;5095478;28;20524;-68
2023/03/18 06:16:41;;;;;;;33.13;21.35;;;9.10;99.90;;;;;;5108352;27;20070;-69
2023/03/18 06:19:06;;;;;;;31.67;20.35;;;9.20;99.90;;;;;;5113462;27;20039;-68
2023/03/18 06:21:33;;;;;;;29.52;20.50;;;9.20;99.90;;;;;;5107311;27;20126;-69
2023/03/18 06:23:59;;;;;;;30.52;20.63;;;9.20;99.90;;;;;;5106282;27;20473;-68
2023/03/18 06:26:25;;;;;;;30.95;19.75;;;9.20;99.90;;;;;;5112344;27;20462;-69
2023/03/18 06:28:52;;;;;;;34.05;21.45;;;9.30;99.90;;;;;;5111116;27;20516;-69
2023/03/18 06:31:17;;;;;;;31.42;19.42;;;9.30;99.90;;;;;;5112182;27;20047;-68
2023/03/18 06:33:44;;;;;;;29.35;20.20;;;9.30;99.90;;;;;;5094995;28;20372;-68
2023/03/18 06:36:10;;;;;;;31.55;21.05;;;9.30;99.90;;;;;;5114505;27;20417;-68
2023/03/18 06:38:36;;;;;;;35.25;21.83;;;9.50;99.90;;;;;;5121642;27;20046;-69
2023/03/18 06:41:02;;;;;;;29.73;20.13;;;9.50;99.90;;;;;;5104854;27;20051;-69
2023/03/18 06:43:28;;;;;;;32.05;20.67;;;9.60;99.90;;;;;;5105893;27;20512;-69
2023/03/18 06:45:53;;;;;;;30.42;18.92;;;9.50;99.90;;;;;;5109239;27;20039;-69
2023/03/18 06:48:19;;;;;;;27.83;19.52;;;9.60;99.90;;;;;;5100706;27;20035;-68
2023/03/18 06:50:45;;;;;;;30.30;19.33;;;9.60;99.90;;;;;;5109153;27;20038;-68
2023/03/18 06:53:11;;;;;;;28.55;19.08;;;9.70;99.90;;;;;;5104098;27;20042;-68
2023/03/18 06:55:37;;;;;;;30.38;19.40;;;9.70;99.90;;;;;;5105780;27;20121;-69
2023/03/18 06:58:04;;;;;;;30.83;19.65;;;9.70;99.90;;;;;;5102156;27;20039;-68
2023/03/18 07:00:30;;;;;;;30.25;19.55;;;9.80;99.90;;;;;;5108157;27;20317;-68
2023/03/18 07:02:56;;;;;;;28.63;18.48;;;9.80;99.90;;;;;;5104394;27;20071;-68
2023/03/18 07:05:22;;;;;;;29.83;19.60;;;9.80;99.90;;;;;;5104978;27;20073;-68
2023/03/18 07:07:48;;;;;;;31.52;17.70;;;9.80;99.90;;;;;;5103966;27;20435;-68
2023/03/18 07:10:26;;;;;;;30.02;18.50;;;9.80;99.90;;;;;;5102387;27;20067;-68
2023/03/18 07:12:52;;;;;;;30.20;19.73;;;9.80;99.90;;;;;;5106325;27;20118;-68
2023/03/18 07:15:21;;;;;;;29.20;20.17;;;9.80;99.90;;;;;;5108331;27;20118;-68
2023/03/18 07:17:48;;;;;;;32.80;20.60;;;9.80;99.90;;;;;;5104915;27;20130;-68
2023/03/18 07:20:14;;;;;;;33.05;21.58;;;9.80;99.90;;;;;;5088846;27;20027;-68
2023/03/18 07:22:41;;;;;;;37.72;23.98;;;9.80;99.90;;;;;;5089019;27;20158;-67
2023/03/18 07:25:09;;;;;;;43.55;24.63;;;9.70;99.90;;;;;;5106841;27;20055;-67
2023/03/18 07:27:34;;;;;;;40.35;24.05;;;9.80;99.90;;;;;;5090086;27;20035;-67
2023/03/18 07:30:01;;;;;;;42.65;25.65;;;9.70;99.90;;;;;;5109027;27;20037;-67
2023/03/18 07:32:28;;;;;;;42.15;26.67;;;9.80;99.90;;;;;;5101053;27;20065;-67
2023/03/18 07:34:55;;;;;;;38.38;25.52;;;9.70;99.90;;;;;;5106668;27;20042;-67
2023/03/18 07:37:20;;;;;;;43.00;25.35;;;9.80;99.90;;;;;;5102153;27;20035;-68
2023/03/18 07:39:46;;;;;;;40.53;24.17;;;9.80;99.90;;;;;;5106158;27;20043;-68
2023/03/18 07:42:12;;;;;;;37.53;23.67;;;9.90;99.90;;;;;;5103570;27;20042;-68
2023/03/18 07:44:37;;;;;;;38.97;22.95;;;9.80;99.90;;;;;;5103629;27;20161;-67
2023/03/18 07:47:03;;;;;;;35.00;24.08;;;9.90;99.90;;;;;;5100503;28;20035;-68
2023/03/18 07:49:30;;;;;;;35.45;22.30;;;9.90;99.90;;;;;;5101215;27;20027;-68
2023/03/18 07:51:56;;;;;;;37.97;23.05;;;10.00;99.90;;;;;;5103865;27;20451;-68
2023/03/18 07:54:23;;;;;;;39.10;23.50;;;10.00;99.90;;;;;;5104277;27;20039;-68
2023/03/18 07:56:52;;;;;;;38.40;22.85;;;10.10;99.90;;;;;;5087822;27;20379;-68
2023/03/18 07:59:18;;;;;;;29.30;21.30;;;10.20;99.90;;;;;;5104906;27;20087;-68
2023/03/18 08:01:43;;;;;;;43.80;24.58;;;10.40;99.90;;;;;;5105862;28;20501;-68
2023/03/18 08:04:09;;;;;;;30.65;21.08;;;10.50;99.90;;;;;;5106046;28;20022;-68
2023/03/18 08:06:36;;;;;;;36.53;23.15;;;10.70;99.90;;;;;;5104828;28;20084;-68
2023/03/18 08:09:02;;;;;;;38.95;23.33;;;10.80;99.90;;;;;;5103537;27;20038;-68
2023/03/18 08:11:29;;;;;;;32.00;21.88;;;10.90;99.90;;;;;;5104072;28;20031;-68
2023/03/18 08:13:54;;;;;;;32.25;20.90;;;10.90;99.90;;;;;;5100481;27;20058;-67
2023/03/18 08:16:20;;;;;;;33.78;21.98;;;11.00;99.90;;;;;;5103944;28;20039;-68
2023/03/18 08:18:45;;;;;;;34.60;21.00;;;11.00;99.90;;;;;;5103016;28;20170;-67
2023/03/18 08:21:11;;;;;;;33.38;19.95;;;11.00;99.90;;;;;;5102980;28;20086;-68
2023/03/18 08:23:37;;;;;;;29.65;19.75;;;11.00;99.90;;;;;;5103457;28;20063;-68
2023/03/18 08:26:03;;;;;;;32.63;20.15;;;11.00;99.90;;;;;;5106945;28;20028;-68
2023/03/18 08:28:29;;;;;;;33.17;21.48;;;11.00;99.90;;;;;;5098763;27;20473;-68
2023/03/18 08:30:56;;;;;;;33.53;20.63;;;11.20;99.90;;;;;;5102947;28;20047;-68
2023/03/18 08:33:25;;;;;;;33.90;21.15;;;11.20;99.90;;;;;;5100586;28;20039;-68
2023/03/18 08:35:51;;;;;;;31.83;19.42;;;11.30;99.90;;;;;;5104266;28;20047;-68
2023/03/18 08:38:18;;;;;;;27.80;20.55;;;11.40;99.90;;;;;;5102027;28;20762;-68
2023/03/18 08:40:43;;;;;;;31.08;20.77;;;11.50;99.90;;;;;;5086645;28;20405;-68
2023/03/18 08:43:09;;;;;;;31.85;20.85;;;11.60;99.90;;;;;;5104816;28;20027;-68
2023/03/18 08:45:35;;;;;;;31.42;20.95;;;11.60;99.90;;;;;;5106224;28;20450;-68
2023/03/18 08:48:01;;;;;;;31.77;21.65;;;11.80;99.90;;;;;;5099573;27;20063;-68
2023/03/18 08:50:28;;;;;;;31.30;20.85;;;11.90;99.90;;;;;;5118243;28;20051;-68
2023/03/18 08:52:58;;;;;;;35.38;22.05;;;11.90;99.90;;;;;;5107175;27;20050;-67
2023/03/18 08:55:30;;;;;;;32.33;21.23;;;11.80;99.90;;;;;;5108551;28;20034;-68
2023/03/18 08:57:56;;;;;;;34.00;21.80;;;11.80;99.90;;;;;;5094816;27;20800;-68
2023/03/18 09:00:22;;;;;;;31.35;21.52;;;11.80;99.90;;;;;;5110416;28;20043;-68
2023/03/18 09:02:48;;;;;;;32.38;22.50;;;11.90;99.90;;;;;;5110519;27;20047;-68
2023/03/18 09:05:13;;;;;;;35.58;23.92;;;12.00;99.90;;;;;;5102822;27;20041;-68
2023/03/18 09:07:39;;;;;;;34.35;23.63;;;12.10;99.90;;;;;;5115034;27;20082;-67
2023/03/18 09:10:05;;;;;;;44.65;24.33;;;12.10;99.90;;;;;;5105837;27;20071;-68
2023/03/18 09:12:31;;;;;;;36.95;24.45;;;12.10;99.90;;;;;;5107298;27;20489;-68
2023/03/18 09:14:57;;;;;;;40.38;24.58;;;12.10;99.90;;;;;;5117285;27;20043;-68
2023/03/18 09:17:23;;;;;;;36.28;24.65;;;12.20;99.90;;;;;;5124312;27;20113;-69
2023/03/18 09:19:49;;;;;;;42.45;26.65;;;12.30;99.90;;;;;;5110472;27;20043;-68
2023/03/18 09:22:15;;;;;;;41.42;27.85;;;12.30;99.90;;;;;;5115765;27;20281;-67
2023/03/18 09:24:41;;;;;;;42.53;26.75;;;12.30;99.90;;;;;;5113383;27;20035;-68
2023/03/18 09:27:06;;;;;;;44.97;27.30;;;12.30;99.90;;;;;;5115712;27;20134;-67
2023/03/18 09:29:32;;;;;;;45.90;28.50;;;12.30;99.90;;;;;;5113432;27;20130;-68
2023/03/18 09:31:57;;;;;;;43.25;28.00;;;12.30;99.90;;;;;;5120175;27;20043;-67
2023/03/18 09:34:23;;;;;;;43.42;30.40;;;12.30;99.90;;;;;;5108357;27;20039;-68
2023/03/18 09:36:50;;;;;;;47.90;29.30;;;12.20;99.90;;;;;;5110361;27;20134;-68
2023/03/18 09:39:20;;;;;;;49.92;29.88;;;12.40;99.90;;;;;;5113400;27;20050;-68
2023/03/18 09:41:55;;;;;;;45.20;29.77;;;12.40;99.90;;;;;;5112363;27;20537;-67
2023/03/18 09:44:28;;;;;;;45.38;30.17;;;12.50;99.90;;;;;;5114296;27;20047;-68
2023/03/18 09:46:56;;;;;;;41.60;29.45;;;12.50;99.90;;;;;;5115792;27;20035;-67
2023/03/18 09:49:46;;;;;;;45.50;31.05;;;12.60;99.90;;;;;;5095116;27;20389;-67
2023/03/18 09:52:22;;;;;;;43.28;29.50;;;12.70;99.90;;;;;;5115662;27;20087;-67
2023/03/18 09:55:13;;;;;;;42.92;29.75;;;12.90;99.90;;;;;;5099301;27;20512;-68
2023/03/18 09:57:42;;;;;;;38.92;27.30;;;13.10;99.90;;;;;;5096009;28;20120;-68
2023/03/18 10:00:19;;;;;;;36.45;25.30;;;13.30;99.90;;;;;;5094934;27;20048;-68
2023/03/18 10:02:58;;;;;;;34.13;24.42;;;13.60;99.90;;;;;;5110797;27;20516;-69
2023/03/18 10:05:35;;;;;;;33.00;23.08;;;13.70;99.90;;;;;;5113228;27;20035;-69
2023/03/18 10:08:20;;;;;;;32.33;22.40;;;13.80;99.90;;;;;;5114245;27;20135;-68
2023/03/18 10:10:46;;;;;;;32.70;21.77;;;14.00;99.90;;;;;;5118252;27;20047;-68
2023/03/18 10:13:53;;;;;;;30.88;21.73;;;14.10;99.90;;;;;;5109456;28;20050;-68
2023/03/18 10:16:27;;;;;;;29.85;21.13;;;14.20;99.90;;;;;;5106266;27;20442;-68
2023/03/18 10:18:53;;;;;;;27.55;20.83;;;14.10;99.90;;;;;;5112234;27;20061;-69
2023/03/18 10:21:44;;;;;;;31.17;22.50;;;14.10;99.90;;;;;;5112249;27;20201;-67
2023/03/18 10:24:34;;;;;;;33.42;23.17;;;14.40;99.90;;;;;;5113391;27;20122;-67
2023/03/18 10:27:23;;;;;;;26.42;19.13;;;14.60;99.90;;;;;;5107136;27;20034;-69
2023/03/18 10:29:58;;;;;;;29.35;18.42;;;14.40;99.90;;;;;;5106696;27;20038;-67
2023/03/18 10:32:43;;;;;;;23.98;17.23;;;14.50;99.90;;;;;;5107721;27;20050;-68
2023/03/18 10:35:30;;;;;;;24.27;17.27;;;14.60;99.90;;;;;;5100842;27;20481;-67
2023/03/18 10:38:06;;;;;;;19.85;16.00;;;14.80;99.90;;;;;;5126506;27;20050;-68
2023/03/18 10:40:38;;;;;;;19.50;15.77;;;14.90;99.90;;;;;;5111888;27;20480;-68
2023/03/18 10:43:15;;;;;;;19.70;15.98;;;15.00;99.90;;;;;;5106822;27;20047;-68
2023/03/18 10:45:42;;;;;;;21.00;15.45;;;14.90;99.90;;;;;;5109937;28;20474;-70
2023/03/18 10:48:19;;;;;;;21.60;15.07;;;14.90;99.90;;;;;;5088010;27;20168;-68
2023/03/18 10:51:11;;;;;;;23.45;14.90;;;14.90;99.90;;;;;;5108270;28;20475;-68
2023/03/18 10:53:55;;;;;;;21.85;14.75;;;14.60;99.90;;;;;;5102648;27;20374;-68
2023/03/18 10:56:21;;;;;;;25.60;15.32;;;14.30;99.90;;;;;;5111410;27;20047;-68
2023/03/18 10:58:48;;;;;;;22.13;16.00;;;14.20;99.90;;;;;;5093795;27;20039;-68
2023/03/18 11:01:17;;;;;;;20.00;14.40;;;14.30;99.90;;;;;;5110047;27;20039;-68
2023/03/18 11:04:05;;;;;;;16.05;12.38;;;14.60;99.90;;;;;;5108489;27;20031;-68
2023/03/18 11:06:45;;;;;;;15.13;11.85;;;14.90;99.90;;;;;;5109873;27;20035;-68
2023/03/18 11:09:19;;;;;;;14.32;11.63;;;15.30;99.90;;;;;;5115440;27;20031;-69
2023/03/18 11:11:48;;;;;;;17.33;12.10;;;15.50;99.90;;;;;;5107027;27;20076;-68
2023/03/18 11:14:19;;;;;;;15.57;11.13;;;15.50;99.90;;;;;;5105460;27;20040;-68
2023/03/18 11:16:45;;;;;;;15.55;11.02;;;15.60;99.90;;;;;;5112752;27;20482;-69
2023/03/18 11:19:37;;;;;;;15.43;11.48;;;15.60;99.90;;;;;;5114757;27;20095;-69
2023/03/18 11:22:08;;;;;;;15.13;11.32;;;15.60;99.90;;;;;;5111701;27;20047;-68
2023/03/18 11:24:38;;;;;;;9.87;7.20;;;15.40;99.90;;;;;;5110949;27;20035;-67
2023/03/18 11:27:23;;;;;;;9.45;7.38;;;15.30;99.90;;;;;;5093238;28;20050;-68
2023/03/18 11:29:59;;;;;;;12.13;8.63;;;15.20;99.90;;;;;;5111005;27;20043;-68
2023/03/18 11:32:30;;;;;;;14.43;10.45;;;15.20;99.90;;;;;;5113420;27;20049;-70
2023/03/18 11:34:59;;;;;;;15.50;10.90;;;15.40;99.90;;;;;;5097828;28;20092;-69
2023/03/18 11:37:40;;;;;;;16.80;12.13;;;15.50;99.90;;;;;;5093359;28;20036;-68
2023/03/18 11:40:25;;;;;;;15.43;12.35;;;15.60;99.90;;;;;;5106575;27;20047;-65
2023/03/18 11:42:55;;;;;;;16.92;12.20;;;15.70;99.90;;;;;;5092730;28;20514;-65
2023/03/18 11:45:51;;;;;;;18.75;13.48;;;15.80;99.90;;;;;;5105620;27;20469;-65
2023/03/18 11:48:38;;;;;;;55.58;15.38;;;15.90;99.90;;;;;;5127898;27;20583;-65
2023/03/18 11:51:41;;;;;;;18.98;12.60;;;16.10;99.90;;;;;;5110723;27;20042;-66
2023/03/18 11:54:14;;;;;;;16.73;12.60;;;16.20;99.90;;;;;;5096953;28;20435;-65
2023/03/18 11:56:48;;;;;;;15.88;12.00;;;16.20;99.90;;;;;;5101308;27;20035;-65
2023/03/18 11:59:51;;;;;;;17.00;12.02;;;16.20;99.90;;;;;;5103298;27;20379;-66
2023/03/18 12:02:49;;;;;;;14.52;10.63;;;16.20;99.90;;;;;;5113196;28;20054;-69
2023/03/18 12:05:24;;;;;;;14.45;10.00;;;15.90;99.90;;;;;;5034325;28;20037;-69
2023/03/18 12:08:02;;;;;;;15.13;10.60;;;15.90;99.90;;;;;;5111694;28;20046;-69
2023/03/18 12:10:37;;;;;;;15.18;10.25;;;15.90;99.90;;;;;;5101320;28;20039;-70
2023/03/18 12:13:40;;;;;;;14.70;11.00;;;16.00;99.90;;;;;;5105356;27;20043;-69
2023/03/18 12:16:18;;;;;;;14.02;11.23;;;16.10;99.90;;;;;;5110004;28;20039;-69
2023/03/18 12:19:24;;;;;;;17.52;11.43;;;16.00;99.90;;;;;;5104802;28;20477;-69
2023/03/18 12:22:03;;;;;;;14.63;11.13;;;16.10;99.90;;;;;;5107834;28;20606;-70
2023/03/18 12:25:01;;;;;;;18.48;11.85;;;16.10;99.90;;;;;;5104514;28;20547;-68
2023/03/18 12:27:35;;;;;;;17.13;12.13;;;16.20;99.90;;;;;;5103279;28;20191;-68
2023/03/18 12:30:31;;;;;;;16.65;12.45;;;16.10;99.90;;;;;;5120508;28;20043;-69
2023/03/18 12:33:17;;;;;;;15.65;11.77;;;16.20;99.90;;;;;;5107625;28;20049;-68
2023/03/18 12:36:05;;;;;;;18.60;13.27;;;16.00;99.90;;;;;;5103290;28;20420;-68
2023/03/18 12:38:55;;;;;;;19.88;13.40;;;15.70;99.90;;;;;;5108193;27;20497;-69
2023/03/18 12:41:54;;;;;;;19.50;12.40;;;15.80;99.90;;;;;;5103192;27;20047;-70
2023/03/18 12:44:56;;;;;;;16.27;11.77;;;15.90;99.90;;;;;;5109867;27;20122;-68